sensor_id;sensor_type;location;lat;lon;timestamp;P1;durP1;ratioP1;P2;durP2;ratioP2
84113;SDS011;74483;48.846;2.358;2024-02-14T00:02:11;0.90;;;0.80;;
84113;SDS011;74483;48.846;2.358;2024-02-14T00:04:37;0.95;;;0.85;;
84113;SDS011;74483;48.846;2.358;2024-02-14T00:07:03;1.02;;;0.93;;
84113;SDS011;74483;48.846;2.358;2024-02-14T00:09:29;1.48;;;1.02;;
84113;SDS011;74483;48.846;2.358;2024-02-14T00:11:56;2.53;;;1.00;;
84113;SDS011;74483;48.846;2.358;2024-02-14T00:14:21;1.80;;;1.00;;
84113;SDS011;74483;48.846;2.358;2024-02-14T00:16:47;1.38;;;0.98;;
84113;SDS011;74483;48.846;2.358;2024-02-14T00:19:13;1.25;;;1.02;;
84113;SDS011;74483;48.846;2.358;2024-02-14T00:21:39;1.65;;;1.00;;
84113;SDS011;74483;48.846;2.358;2024-02-14T00:24:04;1.40;;;0.88;;
84113;SDS011;74483;48.846;2.358;2024-02-14T00:26:31;1.75;;;1.00;;
84113;SDS011;74483;48.846;2.358;2024-02-14T00:28:56;1.77;;;0.90;;
84113;SDS011;74483;48.846;2.358;2024-02-14T00:31:22;1.00;;;0.88;;
84113;SDS011;74483;48.846;2.358;2024-02-14T00:33:47;1.25;;;1.05;;
84113;SDS011;74483;48.846;2.358;2024-02-14T00:36:13;0.93;;;0.93;;
84113;SDS011;74483;48.846;2.358;2024-02-14T00:38:39;1.35;;;0.90;;
84113;SDS011;74483;48.846;2.358;2024-02-14T00:41:04;1.33;;;0.80;;
84113;SDS011;74483;48.846;2.358;2024-02-14T00:43:30;1.35;;;0.90;;
84113;SDS011;74483;48.846;2.358;2024-02-14T00:45:55;1.48;;;0.90;;
84113;SDS011;74483;48.846;2.358;2024-02-14T00:48:22;1.15;;;0.90;;
84113;SDS011;74483;48.846;2.358;2024-02-14T00:50:47;1.20;;;1.00;;
84113;SDS011;74483;48.846;2.358;2024-02-14T00:53:13;0.70;;;0.70;;
84113;SDS011;74483;48.846;2.358;2024-02-14T00:55:39;1.20;;;1.10;;
84113;SDS011;74483;48.846;2.358;2024-02-14T00:58:04;1.30;;;1.00;;
84113;SDS011;74483;48.846;2.358;2024-02-14T01:00:30;1.38;;;1.00;;
84113;SDS011;74483;48.846;2.358;2024-02-14T01:02:59;1.10;;;0.90;;
84113;SDS011;74483;48.846;2.358;2024-02-14T01:05:24;1.17;;;0.95;;
84113;SDS011;74483;48.846;2.358;2024-02-14T01:07:50;0.68;;;0.65;;
84113;SDS011;74483;48.846;2.358;2024-02-14T01:10:18;1.17;;;0.95;;
84113;SDS011;74483;48.846;2.358;2024-02-14T01:12:44;1.00;;;0.90;;
84113;SDS011;74483;48.846;2.358;2024-02-14T01:15:10;1.00;;;0.90;;
84113;SDS011;74483;48.846;2.358;2024-02-14T01:17:35;1.27;;;0.85;;
84113;SDS011;74483;48.846;2.358;2024-02-14T01:20:03;1.00;;;0.90;;
84113;SDS011;74483;48.846;2.358;2024-02-14T01:22:29;1.30;;;0.82;;
84113;SDS011;74483;48.846;2.358;2024-02-14T01:24:55;1.00;;;0.73;;
84113;SDS011;74483;48.846;2.358;2024-02-14T01:27:21;1.00;;;0.90;;
84113;SDS011;74483;48.846;2.358;2024-02-14T01:29:47;0.88;;;0.85;;
84113;SDS011;74483;48.846;2.358;2024-02-14T01:32:13;0.95;;;0.85;;
84113;SDS011;74483;48.846;2.358;2024-02-14T01:34:39;1.25;;;0.70;;
84113;SDS011;74483;48.846;2.358;2024-02-14T01:37:07;0.70;;;0.70;;
84113;SDS011;74483;48.846;2.358;2024-02-14T01:39:34;0.98;;;0.85;;
84113;SDS011;74483;48.846;2.358;2024-02-14T01:42:00;1.73;;;0.95;;
84113;SDS011;74483;48.846;2.358;2024-02-14T01:44:26;1.20;;;0.90;;
84113;SDS011;74483;48.846;2.358;2024-02-14T01:46:51;0.93;;;0.80;;
84113;SDS011;74483;48.846;2.358;2024-02-14T01:49:17;1.63;;;1.20;;
84113;SDS011;74483;48.846;2.358;2024-02-14T01:51:44;0.90;;;0.80;;
84113;SDS011;74483;48.846;2.358;2024-02-14T01:54:11;1.48;;;1.00;;
84113;SDS011;74483;48.846;2.358;2024-02-14T01:56:38;1.10;;;0.93;;
84113;SDS011;74483;48.846;2.358;2024-02-14T01:59:04;1.00;;;0.90;;
84113;SDS011;74483;48.846;2.358;2024-02-14T02:01:31;1.08;;;0.80;;
84113;SDS011;74483;48.846;2.358;2024-02-14T02:03:58;0.75;;;0.75;;
84113;SDS011;74483;48.846;2.358;2024-02-14T02:06:24;1.15;;;0.90;;
84113;SDS011;74483;48.846;2.358;2024-02-14T02:08:51;0.73;;;0.70;;
84113;SDS011;74483;48.846;2.358;2024-02-14T02:11:17;0.98;;;0.88;;
84113;SDS011;74483;48.846;2.358;2024-02-14T02:13:42;1.05;;;0.80;;
84113;SDS011;74483;48.846;2.358;2024-02-14T02:16:08;1.15;;;0.80;;
84113;SDS011;74483;48.846;2.358;2024-02-14T02:18:34;0.98;;;0.80;;
84113;SDS011;74483;48.846;2.358;2024-02-14T02:20:59;0.93;;;0.90;;
84113;SDS011;74483;48.846;2.358;2024-02-14T02:23:28;2.03;;;1.00;;
84113;SDS011;74483;48.846;2.358;2024-02-14T02:25:55;1.10;;;0.80;;
84113;SDS011;74483;48.846;2.358;2024-02-14T02:28:20;1.15;;;0.90;;
84113;SDS011;74483;48.846;2.358;2024-02-14T02:30:46;0.95;;;0.90;;
84113;SDS011;74483;48.846;2.358;2024-02-14T02:33:11;1.05;;;0.80;;
84113;SDS011;74483;48.846;2.358;2024-02-14T02:35:39;1.10;;;1.00;;
84113;SDS011;74483;48.846;2.358;2024-02-14T02:38:07;1.60;;;1.08;;
84113;SDS011;74483;48.846;2.358;2024-02-14T02:40:32;1.20;;;0.90;;
84113;SDS011;74483;48.846;2.358;2024-02-14T02:42:58;0.90;;;0.85;;
84113;SDS011;74483;48.846;2.358;2024-02-14T02:45:25;1.00;;;0.80;;
84113;SDS011;74483;48.846;2.358;2024-02-14T02:47:51;0.82;;;0.80;;
84113;SDS011;74483;48.846;2.358;2024-02-14T02:50:16;1.13;;;0.90;;
84113;SDS011;74483;48.846;2.358;2024-02-14T02:52:42;0.80;;;0.80;;
84113;SDS011;74483;48.846;2.358;2024-02-14T02:55:08;1.27;;;1.10;;
84113;SDS011;74483;48.846;2.358;2024-02-14T02:57:34;1.20;;;0.90;;
84113;SDS011;74483;48.846;2.358;2024-02-14T03:00:02;1.10;;;1.00;;
84113;SDS011;74483;48.846;2.358;2024-02-14T03:02:30;0.93;;;0.90;;
84113;SDS011;74483;48.846;2.358;2024-02-14T03:04:56;1.23;;;0.90;;
84113;SDS011;74483;48.846;2.358;2024-02-14T03:07:22;1.30;;;0.80;;
84113;SDS011;74483;48.846;2.358;2024-02-14T03:09:48;1.15;;;0.90;;
84113;SDS011;74483;48.846;2.358;2024-02-14T03:12:14;1.83;;;1.00;;
84113;SDS011;74483;48.846;2.358;2024-02-14T03:14:43;0.82;;;0.80;;
84113;SDS011;74483;48.846;2.358;2024-02-14T03:17:09;0.65;;;0.65;;
84113;SDS011;74483;48.846;2.358;2024-02-14T03:19:35;0.90;;;0.90;;
84113;SDS011;74483;48.846;2.358;2024-02-14T03:22:03;0.82;;;0.82;;
84113;SDS011;74483;48.846;2.358;2024-02-14T03:24:30;1.30;;;0.88;;
84113;SDS011;74483;48.846;2.358;2024-02-14T03:26:56;1.20;;;1.10;;
84113;SDS011;74483;48.846;2.358;2024-02-14T03:29:22;1.40;;;0.95;;
84113;SDS011;74483;48.846;2.358;2024-02-14T03:31:47;0.80;;;0.80;;
84113;SDS011;74483;48.846;2.358;2024-02-14T03:34:13;1.55;;;0.80;;
84113;SDS011;74483;48.846;2.358;2024-02-14T03:36:39;0.70;;;0.70;;
84113;SDS011;74483;48.846;2.358;2024-02-14T03:39:05;1.30;;;1.10;;
84113;SDS011;74483;48.846;2.358;2024-02-14T03:41:32;1.17;;;0.90;;
84113;SDS011;74483;48.846;2.358;2024-02-14T03:43:58;1.05;;;0.88;;
84113;SDS011;74483;48.846;2.358;2024-02-14T03:46:26;1.17;;;1.08;;
84113;SDS011;74483;48.846;2.358;2024-02-14T03:48:52;1.30;;;0.80;;
84113;SDS011;74483;48.846;2.358;2024-02-14T03:51:24;0.95;;;0.80;;
84113;SDS011;74483;48.846;2.358;2024-02-14T03:53:50;1.30;;;0.80;;
84113;SDS011;74483;48.846;2.358;2024-02-14T03:56:15;0.80;;;0.75;;
84113;SDS011;74483;48.846;2.358;2024-02-14T03:58:41;1.50;;;0.98;;
84113;SDS011;74483;48.846;2.358;2024-02-14T04:01:07;0.82;;;0.77;;
84113;SDS011;74483;48.846;2.358;2024-02-14T04:03:33;2.08;;;0.73;;
84113;SDS011;74483;48.846;2.358;2024-02-14T04:05:59;1.10;;;0.75;;
84113;SDS011;74483;48.846;2.358;2024-02-14T04:08:25;1.00;;;0.90;;
84113;SDS011;74483;48.846;2.358;2024-02-14T04:10:51;1.80;;;1.00;;
84113;SDS011;74483;48.846;2.358;2024-02-14T04:13:19;1.38;;;1.02;;
84113;SDS011;74483;48.846;2.358;2024-02-14T04:15:44;1.00;;;0.90;;
84113;SDS011;74483;48.846;2.358;2024-02-14T04:18:11;1.23;;;0.80;;
84113;SDS011;74483;48.846;2.358;2024-02-14T04:20:37;1.15;;;0.85;;
84113;SDS011;74483;48.846;2.358;2024-02-14T04:23:03;2.33;;;1.10;;
84113;SDS011;74483;48.846;2.358;2024-02-14T04:25:31;1.00;;;0.77;;
84113;SDS011;74483;48.846;2.358;2024-02-14T04:27:57;1.00;;;0.70;;
84113;SDS011;74483;48.846;2.358;2024-02-14T04:30:24;0.90;;;0.80;;
84113;SDS011;74483;48.846;2.358;2024-02-14T04:32:50;1.05;;;0.93;;
84113;SDS011;74483;48.846;2.358;2024-02-14T04:35:16;1.02;;;0.80;;
84113;SDS011;74483;48.846;2.358;2024-02-14T04:37:44;1.15;;;1.00;;
84113;SDS011;74483;48.846;2.358;2024-02-14T04:40:11;1.10;;;1.00;;
84113;SDS011;74483;48.846;2.358;2024-02-14T04:42:37;1.23;;;0.77;;
84113;SDS011;74483;48.846;2.358;2024-02-14T04:45:03;1.40;;;0.80;;
84113;SDS011;74483;48.846;2.358;2024-02-14T04:47:29;1.45;;;1.02;;
84113;SDS011;74483;48.846;2.358;2024-02-14T04:49:55;0.68;;;0.68;;
84113;SDS011;74483;48.846;2.358;2024-02-14T04:52:20;1.08;;;0.98;;
84113;SDS011;74483;48.846;2.358;2024-02-14T04:54:46;0.80;;;0.80;;
84113;SDS011;74483;48.846;2.358;2024-02-14T04:57:12;0.90;;;0.80;;
84113;SDS011;74483;48.846;2.358;2024-02-14T04:59:38;0.80;;;0.80;;
84113;SDS011;74483;48.846;2.358;2024-02-14T05:02:03;0.70;;;0.70;;
84113;SDS011;74483;48.846;2.358;2024-02-14T05:04:29;0.98;;;0.88;;
84113;SDS011;74483;48.846;2.358;2024-02-14T05:06:54;1.20;;;1.08;;
84113;SDS011;74483;48.846;2.358;2024-02-14T05:09:20;1.08;;;0.80;;
84113;SDS011;74483;48.846;2.358;2024-02-14T05:11:46;1.20;;;0.98;;
84113;SDS011;74483;48.846;2.358;2024-02-14T05:14:12;0.93;;;0.80;;
84113;SDS011;74483;48.846;2.358;2024-02-14T05:16:38;1.02;;;0.93;;
84113;SDS011;74483;48.846;2.358;2024-02-14T05:19:03;1.17;;;0.90;;
84113;SDS011;74483;48.846;2.358;2024-02-14T05:21:29;0.75;;;0.73;;
84113;SDS011;74483;48.846;2.358;2024-02-14T05:23:54;0.98;;;0.90;;
84113;SDS011;74483;48.846;2.358;2024-02-14T05:26:20;1.08;;;0.90;;
84113;SDS011;74483;48.846;2.358;2024-02-14T05:28:46;0.70;;;0.70;;
84113;SDS011;74483;48.846;2.358;2024-02-14T05:31:11;1.08;;;0.80;;
84113;SDS011;74483;48.846;2.358;2024-02-14T05:33:37;0.80;;;0.80;;
84113;SDS011;74483;48.846;2.358;2024-02-14T05:36:02;1.00;;;0.90;;
84113;SDS011;74483;48.846;2.358;2024-02-14T05:38:28;1.02;;;0.80;;
84113;SDS011;74483;48.846;2.358;2024-02-14T05:40:54;1.05;;;0.90;;
84113;SDS011;74483;48.846;2.358;2024-02-14T05:43:20;0.80;;;0.80;;
84113;SDS011;74483;48.846;2.358;2024-02-14T05:45:47;0.80;;;0.80;;
84113;SDS011;74483;48.846;2.358;2024-02-14T05:48:12;0.80;;;0.80;;
84113;SDS011;74483;48.846;2.358;2024-02-14T05:50:39;1.15;;;0.88;;
84113;SDS011;74483;48.846;2.358;2024-02-14T05:53:05;1.00;;;0.90;;
84113;SDS011;74483;48.846;2.358;2024-02-14T05:55:31;0.80;;;0.80;;
84113;SDS011;74483;48.846;2.358;2024-02-14T05:57:57;1.05;;;0.90;;
84113;SDS011;74483;48.846;2.358;2024-02-14T06:00:24;1.10;;;0.80;;
84113;SDS011;74483;48.846;2.358;2024-02-14T06:02:50;1.00;;;0.90;;
84113;SDS011;74483;48.846;2.358;2024-02-14T06:05:16;0.90;;;0.82;;
84113;SDS011;74483;48.846;2.358;2024-02-14T06:07:42;0.73;;;0.73;;
84113;SDS011;74483;48.846;2.358;2024-02-14T06:10:10;1.00;;;0.80;;
84113;SDS011;74483;48.846;2.358;2024-02-14T06:12:36;2.22;;;1.00;;
84113;SDS011;74483;48.846;2.358;2024-02-14T06:15:01;0.98;;;0.80;;
84113;SDS011;74483;48.846;2.358;2024-02-14T06:17:27;0.93;;;0.80;;
84113;SDS011;74483;48.846;2.358;2024-02-14T06:19:53;0.80;;;0.80;;
84113;SDS011;74483;48.846;2.358;2024-02-14T06:22:19;0.77;;;0.77;;
84113;SDS011;74483;48.846;2.358;2024-02-14T06:24:48;1.10;;;0.80;;
84113;SDS011;74483;48.846;2.358;2024-02-14T06:27:13;1.70;;;1.00;;
84113;SDS011;74483;48.846;2.358;2024-02-14T06:29:42;0.90;;;0.80;;
84113;SDS011;74483;48.846;2.358;2024-02-14T06:32:08;1.85;;;0.95;;
84113;SDS011;74483;48.846;2.358;2024-02-14T06:34:34;0.70;;;0.70;;
84113;SDS011;74483;48.846;2.358;2024-02-14T06:37:00;1.67;;;0.90;;
84113;SDS011;74483;48.846;2.358;2024-02-14T06:39:25;1.98;;;0.70;;
84113;SDS011;74483;48.846;2.358;2024-02-14T06:41:52;0.95;;;0.85;;
84113;SDS011;74483;48.846;2.358;2024-02-14T06:44:17;0.98;;;0.90;;
84113;SDS011;74483;48.846;2.358;2024-02-14T06:46:43;0.95;;;0.82;;
84113;SDS011;74483;48.846;2.358;2024-02-14T06:49:09;0.80;;;0.80;;
84113;SDS011;74483;48.846;2.358;2024-02-14T06:51:34;0.93;;;0.80;;
84113;SDS011;74483;48.846;2.358;2024-02-14T06:54:00;0.80;;;0.80;;
84113;SDS011;74483;48.846;2.358;2024-02-14T06:56:26;0.85;;;0.85;;
84113;SDS011;74483;48.846;2.358;2024-02-14T06:58:51;0.95;;;0.95;;
84113;SDS011;74483;48.846;2.358;2024-02-14T07:01:24;1.17;;;0.93;;
84113;SDS011;74483;48.846;2.358;2024-02-14T07:03:50;0.95;;;0.80;;
84113;SDS011;74483;48.846;2.358;2024-02-14T07:06:16;0.88;;;0.85;;
84113;SDS011;74483;48.846;2.358;2024-02-14T07:08:42;1.35;;;0.90;;
84113;SDS011;74483;48.846;2.358;2024-02-14T07:11:08;0.88;;;0.88;;
84113;SDS011;74483;48.846;2.358;2024-02-14T07:13:34;0.75;;;0.75;;
84113;SDS011;74483;48.846;2.358;2024-02-14T07:15:59;0.98;;;0.85;;
84113;SDS011;74483;48.846;2.358;2024-02-14T07:18:25;1.00;;;0.90;;
84113;SDS011;74483;48.846;2.358;2024-02-14T07:20:51;0.90;;;0.80;;
84113;SDS011;74483;48.846;2.358;2024-02-14T07:23:18;1.10;;;0.88;;
84113;SDS011;74483;48.846;2.358;2024-02-14T07:25:44;1.13;;;0.80;;
84113;SDS011;74483;48.846;2.358;2024-02-14T07:28:10;0.80;;;0.80;;
84113;SDS011;74483;48.846;2.358;2024-02-14T07:30:36;1.02;;;0.90;;
84113;SDS011;74483;48.846;2.358;2024-02-14T07:33:01;0.77;;;0.68;;
84113;SDS011;74483;48.846;2.358;2024-02-14T07:35:27;1.02;;;0.90;;
84113;SDS011;74483;48.846;2.358;2024-02-14T07:37:53;0.85;;;0.80;;
84113;SDS011;74483;48.846;2.358;2024-02-14T07:40:20;1.30;;;1.15;;
84113;SDS011;74483;48.846;2.358;2024-02-14T07:42:46;1.17;;;0.80;;
84113;SDS011;74483;48.846;2.358;2024-02-14T07:45:12;1.05;;;0.80;;
84113;SDS011;74483;48.846;2.358;2024-02-14T07:47:37;0.95;;;0.77;;
84113;SDS011;74483;48.846;2.358;2024-02-14T07:50:05;1.88;;;1.10;;
84113;SDS011;74483;48.846;2.358;2024-02-14T07:52:31;0.95;;;0.85;;
84113;SDS011;74483;48.846;2.358;2024-02-14T07:54:57;1.00;;;0.90;;
84113;SDS011;74483;48.846;2.358;2024-02-14T07:57:22;1.20;;;0.88;;
84113;SDS011;74483;48.846;2.358;2024-02-14T07:59:49;1.15;;;0.80;;
84113;SDS011;74483;48.846;2.358;2024-02-14T08:02:16;1.13;;;0.90;;
84113;SDS011;74483;48.846;2.358;2024-02-14T08:04:45;0.93;;;0.77;;
84113;SDS011;74483;48.846;2.358;2024-02-14T08:07:11;1.27;;;0.90;;
84113;SDS011;74483;48.846;2.358;2024-02-14T08:09:36;0.73;;;0.70;;
84113;SDS011;74483;48.846;2.358;2024-02-14T08:12:04;1.42;;;1.00;;
84113;SDS011;74483;48.846;2.358;2024-02-14T08:14:30;0.80;;;0.80;;
84113;SDS011;74483;48.846;2.358;2024-02-14T08:16:56;1.33;;;1.00;;
84113;SDS011;74483;48.846;2.358;2024-02-14T08:19:22;0.95;;;0.80;;
84113;SDS011;74483;48.846;2.358;2024-02-14T08:21:48;1.25;;;0.90;;
84113;SDS011;74483;48.846;2.358;2024-02-14T08:24:13;1.05;;;0.85;;
84113;SDS011;74483;48.846;2.358;2024-02-14T08:26:39;0.98;;;0.80;;
84113;SDS011;74483;48.846;2.358;2024-02-14T08:29:04;1.05;;;0.90;;
84113;SDS011;74483;48.846;2.358;2024-02-14T08:31:30;1.10;;;1.00;;
84113;SDS011;74483;48.846;2.358;2024-02-14T08:33:57;1.08;;;0.85;;
84113;SDS011;74483;48.846;2.358;2024-02-14T08:36:23;1.30;;;0.90;;
84113;SDS011;74483;48.846;2.358;2024-02-14T08:38:49;1.10;;;1.00;;
84113;SDS011;74483;48.846;2.358;2024-02-14T08:41:15;0.90;;;0.90;;
84113;SDS011;74483;48.846;2.358;2024-02-14T08:43:41;0.73;;;0.73;;
84113;SDS011;74483;48.846;2.358;2024-02-14T08:46:12;0.82;;;0.75;;
84113;SDS011;74483;48.846;2.358;2024-02-14T08:48:37;1.35;;;0.80;;
84113;SDS011;74483;48.846;2.358;2024-02-14T08:51:11;1.33;;;0.90;;
84113;SDS011;74483;48.846;2.358;2024-02-14T08:53:37;0.85;;;0.82;;
84113;SDS011;74483;48.846;2.358;2024-02-14T08:56:03;1.33;;;0.90;;
84113;SDS011;74483;48.846;2.358;2024-02-14T08:58:29;1.92;;;1.00;;
84113;SDS011;74483;48.846;2.358;2024-02-14T09:00:55;1.50;;;0.80;;
84113;SDS011;74483;48.846;2.358;2024-02-14T09:03:20;0.88;;;0.80;;
84113;SDS011;74483;48.846;2.358;2024-02-14T09:05:46;2.08;;;1.05;;
84113;SDS011;74483;48.846;2.358;2024-02-14T09:08:12;1.48;;;0.95;;
84113;SDS011;74483;48.846;2.358;2024-02-14T09:10:38;1.25;;;0.80;;
84113;SDS011;74483;48.846;2.358;2024-02-14T09:13:04;1.20;;;0.98;;
84113;SDS011;74483;48.846;2.358;2024-02-14T09:15:32;1.58;;;0.68;;
84113;SDS011;74483;48.846;2.358;2024-02-14T09:17:57;1.13;;;0.75;;
84113;SDS011;74483;48.846;2.358;2024-02-14T09:20:25;1.15;;;0.80;;
84113;SDS011;74483;48.846;2.358;2024-02-14T09:22:51;2.22;;;0.90;;
84113;SDS011;74483;48.846;2.358;2024-02-14T09:25:16;2.90;;;1.02;;
84113;SDS011;74483;48.846;2.358;2024-02-14T09:27:42;2.33;;;0.90;;
84113;SDS011;74483;48.846;2.358;2024-02-14T09:30:09;0.90;;;0.80;;
84113;SDS011;74483;48.846;2.358;2024-02-14T09:32:35;2.03;;;0.75;;
84113;SDS011;74483;48.846;2.358;2024-02-14T09:35:01;2.50;;;0.93;;
84113;SDS011;74483;48.846;2.358;2024-02-14T09:37:29;1.85;;;0.90;;
84113;SDS011;74483;48.846;2.358;2024-02-14T09:39:55;1.85;;;0.98;;
84113;SDS011;74483;48.846;2.358;2024-02-14T09:42:28;2.75;;;0.82;;
84113;SDS011;74483;48.846;2.358;2024-02-14T09:45:08;1.88;;;0.95;;
84113;SDS011;74483;48.846;2.358;2024-02-14T09:47:34;2.30;;;1.20;;
84113;SDS011;74483;48.846;2.358;2024-02-14T09:50:02;3.65;;;1.10;;
84113;SDS011;74483;48.846;2.358;2024-02-14T09:52:31;3.33;;;0.95;;
84113;SDS011;74483;48.846;2.358;2024-02-14T09:54:58;3.45;;;1.00;;
84113;SDS011;74483;48.846;2.358;2024-02-14T09:57:24;2.92;;;0.82;;
84113;SDS011;74483;48.846;2.358;2024-02-14T09:59:51;2.15;;;1.00;;
84113;SDS011;74483;48.846;2.358;2024-02-14T10:02:19;4.07;;;1.10;;
84113;SDS011;74483;48.846;2.358;2024-02-14T10:04:45;2.47;;;0.93;;
84113;SDS011;74483;48.846;2.358;2024-02-14T10:07:10;2.60;;;0.90;;
84113;SDS011;74483;48.846;2.358;2024-02-14T10:09:42;1.30;;;0.93;;
84113;SDS011;74483;48.846;2.358;2024-02-14T10:12:08;2.65;;;1.05;;
84113;SDS011;74483;48.846;2.358;2024-02-14T10:14:34;3.13;;;1.17;;
84113;SDS011;74483;48.846;2.358;2024-02-14T10:17:02;1.75;;;0.98;;
84113;SDS011;74483;48.846;2.358;2024-02-14T10:19:28;4.57;;;1.08;;
84113;SDS011;74483;48.846;2.358;2024-02-14T10:22:00;4.00;;;1.23;;
84113;SDS011;74483;48.846;2.358;2024-02-14T10:24:30;4.15;;;1.20;;
84113;SDS011;74483;48.846;2.358;2024-02-14T10:26:58;1.92;;;1.02;;
84113;SDS011;74483;48.846;2.358;2024-02-14T10:29:24;3.65;;;1.30;;
84113;SDS011;74483;48.846;2.358;2024-02-14T10:31:50;3.85;;;1.05;;
84113;SDS011;74483;48.846;2.358;2024-02-14T10:34:18;4.68;;;1.02;;
84113;SDS011;74483;48.846;2.358;2024-02-14T10:36:45;3.53;;;1.20;;
84113;SDS011;74483;48.846;2.358;2024-02-14T10:39:11;3.70;;;1.40;;
84113;SDS011;74483;48.846;2.358;2024-02-14T10:41:38;4.40;;;1.25;;
84113;SDS011;74483;48.846;2.358;2024-02-14T10:44:04;2.47;;;1.10;;
84113;SDS011;74483;48.846;2.358;2024-02-14T10:46:31;3.78;;;1.00;;
84113;SDS011;74483;48.846;2.358;2024-02-14T10:49:02;2.83;;;1.17;;
84113;SDS011;74483;48.846;2.358;2024-02-14T10:51:33;6.28;;;1.20;;
84113;SDS011;74483;48.846;2.358;2024-02-14T10:54:03;4.32;;;1.25;;
84113;SDS011;74483;48.846;2.358;2024-02-14T10:56:34;2.42;;;1.10;;
84113;SDS011;74483;48.846;2.358;2024-02-14T10:59:03;4.28;;;1.30;;
84113;SDS011;74483;48.846;2.358;2024-02-14T11:01:31;6.43;;;1.20;;
84113;SDS011;74483;48.846;2.358;2024-02-14T11:03:59;4.70;;;1.17;;
84113;SDS011;74483;48.846;2.358;2024-02-14T11:06:26;2.42;;;1.00;;
84113;SDS011;74483;48.846;2.358;2024-02-14T11:09:01;3.92;;;1.20;;
84113;SDS011;74483;48.846;2.358;2024-02-14T11:11:32;5.20;;;1.30;;
84113;SDS011;74483;48.846;2.358;2024-02-14T11:13:58;6.95;;;1.15;;
84113;SDS011;74483;48.846;2.358;2024-02-14T11:16:25;4.50;;;1.17;;
84113;SDS011;74483;48.846;2.358;2024-02-14T11:18:53;4.47;;;1.10;;
84113;SDS011;74483;48.846;2.358;2024-02-14T11:21:19;5.40;;;1.10;;
84113;SDS011;74483;48.846;2.358;2024-02-14T11:23:54;3.78;;;1.30;;
84113;SDS011;74483;48.846;2.358;2024-02-14T11:26:20;6.30;;;1.20;;
84113;SDS011;74483;48.846;2.358;2024-02-14T11:28:48;3.13;;;1.30;;
84113;SDS011;74483;48.846;2.358;2024-02-14T11:31:16;4.63;;;1.23;;
84113;SDS011;74483;48.846;2.358;2024-02-14T11:33:42;4.18;;;1.15;;
84113;SDS011;74483;48.846;2.358;2024-02-14T11:36:11;5.72;;;1.10;;
84113;SDS011;74483;48.846;2.358;2024-02-14T11:38:40;2.95;;;1.08;;
84113;SDS011;74483;48.846;2.358;2024-02-14T11:41:06;3.20;;;1.00;;
84113;SDS011;74483;48.846;2.358;2024-02-14T11:43:31;3.15;;;0.90;;
84113;SDS011;74483;48.846;2.358;2024-02-14T11:45:57;3.53;;;1.15;;
84113;SDS011;74483;48.846;2.358;2024-02-14T11:48:23;5.65;;;1.30;;
84113;SDS011;74483;48.846;2.358;2024-02-14T11:50:49;3.88;;;1.00;;
84113;SDS011;74483;48.846;2.358;2024-02-14T11:53:17;3.88;;;1.05;;
84113;SDS011;74483;48.846;2.358;2024-02-14T11:55:44;1.25;;;1.00;;
84113;SDS011;74483;48.846;2.358;2024-02-14T11:58:12;2.72;;;1.00;;
84113;SDS011;74483;48.846;2.358;2024-02-14T12:00:39;4.40;;;0.82;;
84113;SDS011;74483;48.846;2.358;2024-02-14T12:03:18;3.67;;;1.00;;
84113;SDS011;74483;48.846;2.358;2024-02-14T12:05:46;4.47;;;1.00;;
84113;SDS011;74483;48.846;2.358;2024-02-14T12:08:13;2.13;;;1.00;;
84113;SDS011;74483;48.846;2.358;2024-02-14T12:10:42;2.55;;;1.08;;
84113;SDS011;74483;48.846;2.358;2024-02-14T12:13:08;3.97;;;1.15;;
84113;SDS011;74483;48.846;2.358;2024-02-14T12:15:46;2.15;;;0.90;;
84113;SDS011;74483;48.846;2.358;2024-02-14T12:18:12;2.72;;;1.10;;
84113;SDS011;74483;48.846;2.358;2024-02-14T12:20:41;3.45;;;0.80;;
84113;SDS011;74483;48.846;2.358;2024-02-14T12:23:17;3.15;;;0.90;;
84113;SDS011;74483;48.846;2.358;2024-02-14T12:25:44;3.03;;;1.13;;
84113;SDS011;74483;48.846;2.358;2024-02-14T12:28:13;3.22;;;1.10;;
84113;SDS011;74483;48.846;2.358;2024-02-14T12:30:43;1.85;;;1.00;;
84113;SDS011;74483;48.846;2.358;2024-02-14T12:33:14;3.53;;;1.40;;
84113;SDS011;74483;48.846;2.358;2024-02-14T12:35:44;3.17;;;1.20;;
84113;SDS011;74483;48.846;2.358;2024-02-14T12:38:11;6.00;;;1.35;;
84113;SDS011;74483;48.846;2.358;2024-02-14T12:40:38;5.50;;;1.27;;
84113;SDS011;74483;48.846;2.358;2024-02-14T12:43:06;5.63;;;1.20;;
84113;SDS011;74483;48.846;2.358;2024-02-14T12:45:33;4.80;;;1.27;;
84113;SDS011;74483;48.846;2.358;2024-02-14T12:47:58;5.32;;;1.25;;
84113;SDS011;74483;48.846;2.358;2024-02-14T12:50:24;4.97;;;1.27;;
84113;SDS011;74483;48.846;2.358;2024-02-14T12:52:50;5.82;;;1.35;;
84113;SDS011;74483;48.846;2.358;2024-02-14T12:55:16;4.70;;;1.58;;
84113;SDS011;74483;48.846;2.358;2024-02-14T12:57:43;5.70;;;1.52;;
84113;SDS011;74483;48.846;2.358;2024-02-14T13:00:10;5.75;;;1.35;;
84113;SDS011;74483;48.846;2.358;2024-02-14T13:02:36;4.93;;;1.60;;
84113;SDS011;74483;48.846;2.358;2024-02-14T13:05:03;5.10;;;1.33;;
84113;SDS011;74483;48.846;2.358;2024-02-14T13:07:30;3.55;;;1.38;;
84113;SDS011;74483;48.846;2.358;2024-02-14T13:09:56;5.18;;;1.30;;
84113;SDS011;74483;48.846;2.358;2024-02-14T13:12:21;4.43;;;1.30;;
84113;SDS011;74483;48.846;2.358;2024-02-14T13:14:48;3.28;;;1.20;;
84113;SDS011;74483;48.846;2.358;2024-02-14T13:17:13;3.05;;;1.30;;
84113;SDS011;74483;48.846;2.358;2024-02-14T13:19:39;6.53;;;1.40;;
84113;SDS011;74483;48.846;2.358;2024-02-14T13:22:07;4.93;;;1.42;;
84113;SDS011;74483;48.846;2.358;2024-02-14T13:24:33;3.78;;;1.48;;
84113;SDS011;74483;48.846;2.358;2024-02-14T13:26:59;6.55;;;1.42;;
84113;SDS011;74483;48.846;2.358;2024-02-14T13:29:25;5.88;;;1.42;;
84113;SDS011;74483;48.846;2.358;2024-02-14T13:31:50;4.53;;;1.70;;
84113;SDS011;74483;48.846;2.358;2024-02-14T13:34:17;4.07;;;1.38;;
84113;SDS011;74483;48.846;2.358;2024-02-14T13:36:44;5.25;;;1.40;;
84113;SDS011;74483;48.846;2.358;2024-02-14T13:39:13;4.47;;;1.42;;
84113;SDS011;74483;48.846;2.358;2024-02-14T13:41:39;6.03;;;1.58;;
84113;SDS011;74483;48.846;2.358;2024-02-14T13:44:08;3.25;;;1.20;;
84113;SDS011;74483;48.846;2.358;2024-02-14T13:46:34;2.88;;;1.48;;
84113;SDS011;74483;48.846;2.358;2024-02-14T13:49:01;4.15;;;1.52;;
84113;SDS011;74483;48.846;2.358;2024-02-14T13:51:26;5.47;;;1.60;;
84113;SDS011;74483;48.846;2.358;2024-02-14T13:53:52;5.10;;;2.05;;
84113;SDS011;74483;48.846;2.358;2024-02-14T13:56:18;5.30;;;1.63;;
84113;SDS011;74483;48.846;2.358;2024-02-14T13:58:47;3.42;;;1.42;;
84113;SDS011;74483;48.846;2.358;2024-02-14T14:01:15;3.15;;;1.35;;
84113;SDS011;74483;48.846;2.358;2024-02-14T14:03:42;3.55;;;1.30;;
84113;SDS011;74483;48.846;2.358;2024-02-14T14:06:08;3.92;;;1.35;;
84113;SDS011;74483;48.846;2.358;2024-02-14T14:08:34;3.95;;;1.73;;
84113;SDS011;74483;48.846;2.358;2024-02-14T14:11:01;4.07;;;1.45;;
84113;SDS011;74483;48.846;2.358;2024-02-14T14:13:28;4.20;;;1.30;;
84113;SDS011;74483;48.846;2.358;2024-02-14T14:15:56;3.80;;;1.77;;
84113;SDS011;74483;48.846;2.358;2024-02-14T14:18:22;3.65;;;1.27;;
84113;SDS011;74483;48.846;2.358;2024-02-14T14:20:49;5.50;;;1.35;;
84113;SDS011;74483;48.846;2.358;2024-02-14T14:23:14;4.20;;;1.40;;
84113;SDS011;74483;48.846;2.358;2024-02-14T14:25:41;2.85;;;1.52;;
84113;SDS011;74483;48.846;2.358;2024-02-14T14:28:06;3.60;;;1.30;;
84113;SDS011;74483;48.846;2.358;2024-02-14T14:30:34;5.05;;;1.58;;
84113;SDS011;74483;48.846;2.358;2024-02-14T14:33:05;3.20;;;1.27;;
84113;SDS011;74483;48.846;2.358;2024-02-14T14:35:33;3.78;;;1.67;;
84113;SDS011;74483;48.846;2.358;2024-02-14T14:37:59;4.20;;;1.40;;
84113;SDS011;74483;48.846;2.358;2024-02-14T14:40:25;3.70;;;1.40;;
84113;SDS011;74483;48.846;2.358;2024-02-14T14:42:51;2.17;;;1.17;;
84113;SDS011;74483;48.846;2.358;2024-02-14T14:45:17;2.80;;;1.60;;